createdAt,value
2023-04-05T00:00:11.216Z,3.58
2023-04-05T00:03:18.583Z,2.97
2023-04-05T00:06:22.315Z,3.60
2023-04-05T00:09:25.042Z,3.30
2023-04-05T00:12:27.908Z,3.33
2023-04-05T00:15:31.471Z,3.33
2023-04-05T00:18:38.370Z,3.50
2023-04-05T00:21:41.748Z,3.92
2023-04-05T00:24:45.644Z,3.70
2023-04-05T00:27:48.498Z,3.67
2023-04-05T00:30:53.677Z,3.63
2023-04-05T00:33:57.873Z,3.50
2023-04-05T00:37:01.578Z,3.93
2023-04-05T00:40:05.556Z,4.03
2023-04-05T00:43:08.464Z,3.80
2023-04-05T00:46:11.561Z,4.32
2023-04-05T00:49:15.834Z,3.60
2023-04-05T00:52:19.566Z,4.03
2023-04-05T00:55:22.877Z,4.05
2023-04-05T00:58:25.776Z,4.47
2023-04-05T01:01:30.342Z,4.32
2023-04-05T01:04:37.891Z,4.50
2023-04-05T01:07:47.631Z,4.10
2023-04-05T01:10:59.899Z,4.07
2023-04-05T01:14:03.228Z,4.30
2023-04-05T01:17:09.705Z,4.13
2023-04-05T01:20:14.132Z,4.20
2023-04-05T01:23:37.777Z,4.00
2023-04-05T01:27:05.568Z,3.85
2023-04-05T01:30:16.828Z,3.40
2023-04-05T01:33:26.843Z,3.80
2023-04-05T01:36:41.135Z,3.90
2023-04-05T01:39:44.623Z,3.60
2023-04-05T01:42:47.324Z,3.75
2023-04-05T01:45:51.580Z,3.92
2023-04-05T01:48:54.413Z,3.83
2023-04-05T01:51:57.185Z,3.70
2023-04-05T01:55:00.031Z,3.60
2023-04-05T01:58:02.832Z,3.75
2023-04-05T02:01:07.166Z,3.28
2023-04-05T02:04:10.101Z,3.42
2023-04-05T02:07:12.819Z,3.93
2023-04-05T02:10:16.253Z,3.43
2023-04-05T02:13:18.909Z,3.60
2023-04-05T02:16:23.604Z,3.80
2023-04-05T02:19:26.463Z,3.30
2023-04-05T02:22:29.855Z,3.97
2023-04-05T02:25:32.584Z,3.27
2023-04-05T02:28:35.685Z,3.22
2023-04-05T02:31:40.013Z,3.30
2023-04-05T02:34:43.490Z,2.85
2023-04-05T02:37:46.455Z,3.27
2023-04-05T02:40:50.305Z,3.20
2023-04-05T02:43:54.190Z,3.13
2023-04-05T02:46:58.440Z,3.40
2023-04-05T02:50:01.409Z,3.50
2023-04-05T02:53:04.376Z,3.23
2023-04-05T02:56:07.831Z,3.00
2023-04-05T02:59:11.125Z,3.20
2023-04-05T03:02:16.118Z,2.85
2023-04-05T03:05:20.723Z,3.10
2023-04-05T03:08:24.087Z,3.20
2023-04-05T03:11:26.811Z,3.43
2023-04-05T03:14:29.834Z,3.13
2023-04-05T03:17:34.077Z,2.60
2023-04-05T03:20:40.013Z,2.90
2023-04-05T03:23:43.144Z,3.03
2023-04-05T03:26:48.039Z,3.47
2023-04-05T03:29:51.487Z,2.80
2023-04-05T03:32:57.214Z,2.50
2023-04-05T03:36:01.242Z,2.65
2023-04-05T03:39:04.962Z,2.80
2023-04-05T03:42:07.674Z,2.77
2023-04-05T03:45:11.132Z,2.75
2023-04-05T03:48:19.997Z,3.00
2023-04-05T03:51:22.731Z,2.65
2023-04-05T03:54:25.561Z,2.60
2023-04-05T03:57:29.483Z,2.20
2023-04-05T04:00:34.329Z,2.45
2023-04-05T04:03:39.108Z,2.22
2023-04-05T04:06:42.130Z,2.10
2023-04-05T04:09:44.972Z,2.40
2023-04-05T04:12:47.703Z,2.30
2023-04-05T04:15:50.792Z,2.20
2023-04-05T04:18:54.976Z,2.35
2023-04-05T04:21:59.226Z,2.42
2023-04-05T04:25:04.730Z,2.20
2023-04-05T04:28:07.951Z,2.33
2023-04-05T04:31:13.632Z,2.20
2023-04-05T04:34:18.504Z,2.40
2023-04-05T04:37:22.905Z,2.30
2023-04-05T04:40:29.271Z,2.30
2023-04-05T04:43:33.941Z,2.17
2023-04-05T04:46:43.011Z,2.35
2023-04-05T04:49:47.252Z,2.33
2023-04-05T04:52:49.985Z,2.07
2023-04-05T04:55:52.780Z,2.03
2023-04-05T04:58:56.682Z,2.50
2023-04-05T05:01:59.639Z,2.10
2023-04-05T05:05:04.417Z,2.20
2023-04-05T05:08:07.622Z,2.10
2023-04-05T05:11:11.025Z,2.13
2023-04-05T05:14:13.944Z,2.00
2023-04-05T05:17:16.769Z,1.85
2023-04-05T05:20:21.056Z,2.40
2023-04-05T05:23:24.004Z,2.30
2023-04-05T05:26:27.191Z,2.10
2023-04-05T05:29:30.369Z,2.65
2023-04-05T05:32:33.289Z,2.03
2023-04-05T05:35:38.137Z,2.17
2023-04-05T05:38:43.158Z,2.53
2023-04-05T05:41:46.367Z,2.53
2023-04-05T05:44:49.266Z,2.20
2023-04-05T05:47:52.383Z,1.73
2023-04-05T05:50:57.233Z,1.80
2023-04-05T05:54:00.403Z,2.27
2023-04-05T05:57:03.476Z,2.00
2023-04-05T06:00:09.657Z,2.25
2023-04-05T06:03:13.503Z,2.10
2023-04-05T06:06:17.881Z,2.20
2023-04-05T06:09:21.686Z,2.27
2023-04-05T06:12:24.814Z,2.38
2023-04-05T06:15:28.397Z,2.05
2023-04-05T06:18:31.617Z,2.15
2023-04-05T06:21:35.736Z,2.00
2023-04-05T06:24:38.637Z,2.10
2023-04-05T06:27:41.392Z,1.73
2023-04-05T06:30:45.090Z,2.13
2023-04-05T06:33:48.360Z,2.15
2023-04-05T06:36:52.771Z,2.50
2023-04-05T06:39:55.744Z,2.53
2023-04-05T06:42:58.483Z,2.58
2023-04-05T06:46:01.908Z,2.60
2023-04-05T06:49:04.833Z,2.10
2023-04-05T06:52:08.889Z,1.80
2023-04-05T06:55:11.783Z,2.50
2023-04-05T06:58:14.505Z,2.37
2023-04-05T07:01:17.742Z,2.45
2023-04-05T07:04:20.817Z,2.58
2023-04-05T07:07:24.874Z,2.28
2023-04-05T07:10:27.774Z,2.35
2023-04-05T07:13:30.733Z,2.57
2023-04-05T07:16:34.009Z,2.20
2023-04-05T07:19:36.912Z,2.30
2023-04-05T07:22:41.321Z,2.10
2023-04-05T07:25:44.117Z,1.85
2023-04-05T07:28:46.861Z,1.70
2023-04-05T07:31:50.013Z,2.00
2023-04-05T07:34:53.021Z,2.45
2023-04-05T07:37:57.128Z,1.98
2023-04-05T07:40:59.981Z,2.35
2023-04-05T07:44:02.693Z,2.37
2023-04-05T07:47:05.591Z,2.15
2023-04-05T07:50:09.995Z,2.67
2023-04-05T07:53:14.455Z,2.40
2023-04-05T07:56:17.428Z,2.70
2023-04-05T07:59:20.522Z,2.43
2023-04-05T08:02:23.390Z,2.25
2023-04-05T08:05:26.497Z,3.00
2023-04-05T08:08:31.945Z,2.80
2023-04-05T08:11:35.062Z,2.78
2023-04-05T08:14:37.770Z,2.67
2023-04-05T08:17:40.680Z,2.95
2023-04-05T08:20:43.727Z,2.88
2023-04-05T08:23:49.265Z,2.80
2023-04-05T08:26:52.069Z,2.80
2023-04-05T08:29:54.755Z,2.70
2023-04-05T08:32:57.486Z,2.65
2023-04-05T08:36:05.405Z,3.15
2023-04-05T08:39:10.857Z,2.80
2023-04-05T08:42:18.001Z,2.75
2023-04-05T08:45:21.970Z,3.17
2023-04-05T08:48:25.095Z,5.38
2023-04-05T08:51:28.159Z,3.53
2023-04-05T08:54:32.745Z,3.20
2023-04-05T08:57:39.047Z,3.03
2023-04-05T09:00:42.944Z,3.07
2023-04-05T09:03:46.949Z,3.40
2023-04-05T09:06:51.776Z,3.30
2023-04-05T09:09:59.428Z,2.97
2023-04-05T09:13:03.442Z,2.92
2023-04-05T09:16:06.825Z,3.23
2023-04-05T09:19:11.276Z,2.90
2023-04-05T09:22:18.389Z,3.33
2023-04-05T09:25:39.807Z,3.58
2023-04-05T09:28:43.933Z,2.88
2023-04-05T09:31:46.792Z,3.20
2023-04-05T09:34:53.308Z,2.90
2023-04-05T09:37:58.251Z,3.33
2023-04-05T09:41:10.297Z,2.83
2023-04-05T09:44:13.166Z,3.33
2023-04-05T09:47:20.498Z,3.00
2023-04-05T09:50:23.636Z,3.00
2023-04-05T09:53:26.358Z,3.58
2023-04-05T09:56:32.959Z,3.05
2023-04-05T09:59:36.245Z,2.55
2023-04-05T10:02:40.796Z,3.30
2023-04-05T10:05:45.778Z,3.13
2023-04-05T10:08:48.804Z,3.45
2023-04-05T10:11:53.160Z,3.13
2023-04-05T10:14:57.508Z,3.20
2023-04-05T10:18:09.489Z,3.10
2023-04-05T10:21:16.114Z,3.10
2023-04-05T10:24:33.214Z,3.05
2023-04-05T10:27:47.505Z,2.80
2023-04-05T10:30:58.537Z,2.63
2023-04-05T10:34:05.774Z,2.77
2023-04-05T10:37:12.184Z,2.88
2023-04-05T10:40:18.495Z,2.58
2023-04-05T10:43:26.820Z,3.00
2023-04-05T10:46:31.402Z,2.67
2023-04-05T10:49:38.302Z,3.17
2023-04-05T10:52:42.709Z,2.80
2023-04-05T10:55:47.459Z,3.10
2023-04-05T10:58:54.174Z,2.70
2023-04-05T11:01:59.382Z,2.80
2023-04-05T11:05:05.256Z,2.83
2023-04-05T11:08:09.479Z,3.13
2023-04-05T11:11:13.894Z,3.30
2023-04-05T11:14:23.629Z,2.80
2023-04-05T11:17:28.021Z,3.55
2023-04-05T11:20:43.511Z,2.97
2023-04-05T11:24:03.083Z,2.83
2023-04-05T11:27:11.248Z,2.63
2023-04-05T11:30:36.399Z,3.53
2023-04-05T11:33:56.968Z,2.90
2023-04-05T11:37:01.083Z,2.43
2023-04-05T11:40:29.138Z,2.42
2023-04-05T11:43:34.566Z,3.20
2023-04-05T11:46:40.230Z,2.63
2023-04-05T11:49:43.378Z,2.90
2023-04-05T11:52:46.474Z,3.10
2023-04-05T11:55:52.498Z,2.65
2023-04-05T11:58:59.658Z,3.08
2023-04-05T12:02:07.769Z,2.40
2023-04-05T12:05:12.345Z,2.80
2023-04-05T12:08:15.538Z,2.47
2023-04-05T12:11:27.168Z,2.67
2023-04-05T12:14:29.906Z,3.58
2023-04-05T12:17:46.609Z,2.72
2023-04-05T12:20:49.413Z,3.70
2023-04-05T12:23:53.078Z,2.87
2023-04-05T12:26:58.588Z,2.80
2023-04-05T12:30:15.895Z,2.80
2023-04-05T12:33:29.485Z,2.78
2023-04-05T12:36:32.813Z,2.75
2023-04-05T12:39:36.704Z,2.67
2023-04-05T12:42:40.956Z,2.80
2023-04-05T12:45:44.455Z,2.92
2023-04-05T12:48:53.447Z,2.67
2023-04-05T12:52:04.241Z,2.90
2023-04-05T12:55:16.759Z,2.37
2023-04-05T12:58:20.839Z,2.97
2023-04-05T13:01:23.588Z,2.83
2023-04-05T13:04:28.724Z,2.60
2023-04-05T13:07:31.459Z,2.88
2023-04-05T13:10:34.429Z,2.80
2023-04-05T13:13:37.323Z,3.00
2023-04-05T13:16:40.103Z,2.97
2023-04-05T13:19:44.703Z,2.85
2023-04-05T13:22:47.854Z,2.30
2023-04-05T13:25:50.905Z,2.80
2023-04-05T13:28:53.760Z,2.83
2023-04-05T13:31:56.576Z,3.30
2023-04-05T13:35:02.803Z,3.17
2023-04-05T13:38:05.812Z,2.72
2023-04-05T13:41:09.234Z,2.30
2023-04-05T13:44:12.341Z,3.10
2023-04-05T13:47:16.777Z,3.17
2023-04-05T13:50:21.171Z,2.90
2023-04-05T13:53:24.896Z,3.10
2023-04-05T13:56:28.611Z,2.60
2023-04-05T13:59:31.697Z,1.98
2023-04-05T14:02:34.986Z,3.08
2023-04-05T14:05:41.621Z,2.10
2023-04-05T14:08:44.752Z,2.33
2023-04-05T14:11:47.461Z,2.43
2023-04-05T14:14:51.452Z,2.20
2023-04-05T14:17:56.226Z,2.45
2023-04-05T14:21:01.098Z,2.80
2023-04-05T14:24:04.241Z,2.70
2023-04-05T14:27:08.577Z,2.20
2023-04-05T14:30:12.455Z,2.80
2023-04-05T14:33:16.384Z,3.38
2023-04-05T14:36:20.812Z,2.85
2023-04-05T14:39:23.797Z,2.60
2023-04-05T14:42:37.302Z,2.50
2023-04-05T14:45:44.512Z,2.30
2023-04-05T14:48:47.838Z,2.90
2023-04-05T14:51:52.884Z,2.45
2023-04-05T14:54:55.945Z,2.38
2023-04-05T14:57:58.886Z,2.93
2023-04-05T15:01:01.983Z,2.40
2023-04-05T15:04:07.493Z,2.53
2023-04-05T15:07:13.829Z,2.40
2023-04-05T15:10:18.583Z,2.65
2023-04-05T15:13:22.072Z,2.73
2023-04-05T15:16:26.116Z,2.75
2023-04-05T15:19:30.463Z,3.70
2023-04-05T15:22:36.103Z,2.97
2023-04-05T15:25:39.040Z,2.80
2023-04-05T15:28:42.590Z,2.70
2023-04-05T15:31:47.665Z,2.65
2023-04-05T15:34:50.814Z,2.72
2023-04-05T15:37:55.120Z,2.72
2023-04-05T15:41:00.268Z,3.00
2023-04-05T15:44:03.747Z,2.50
2023-04-05T15:47:11.009Z,2.50
2023-04-05T15:50:14.141Z,2.70
2023-04-05T15:53:19.165Z,2.30
2023-04-05T15:56:22.181Z,3.13
2023-04-05T15:59:27.704Z,3.27
2023-04-05T16:02:31.511Z,2.63
2023-04-05T16:05:34.560Z,2.38
2023-04-05T16:08:38.819Z,2.03
2023-04-05T16:11:42.156Z,2.17
2023-04-05T16:14:45.495Z,2.33
2023-04-05T16:17:48.842Z,2.40
2023-04-05T16:20:52.758Z,3.00
2023-04-05T16:24:01.285Z,2.35
2023-04-05T16:27:04.609Z,2.13
2023-04-05T16:30:09.109Z,2.37
2023-04-05T16:33:15.200Z,2.10
2023-04-05T16:36:18.377Z,2.30
2023-04-05T16:39:22.840Z,2.70
2023-04-05T16:42:27.311Z,3.00
2023-04-05T16:45:33.748Z,2.03
2023-04-05T16:48:36.719Z,2.35
2023-04-05T16:51:40.219Z,2.20
2023-04-05T16:54:49.327Z,2.25
2023-04-05T16:57:54.118Z,2.10
2023-04-05T17:00:58.981Z,2.00
2023-04-05T17:04:01.953Z,2.10
2023-04-05T17:07:04.876Z,2.42
2023-04-05T17:10:10.621Z,2.35
2023-04-05T17:13:15.429Z,2.15
2023-04-05T17:16:18.682Z,2.23
2023-04-05T17:19:24.867Z,2.38
2023-04-05T17:22:27.946Z,2.22
2023-04-05T17:25:32.459Z,2.20
2023-04-05T17:28:35.783Z,2.60
2023-04-05T17:31:38.792Z,1.90
2023-04-05T17:34:42.395Z,2.10
2023-04-05T17:37:47.766Z,2.38
2023-04-05T17:40:52.947Z,2.83
2023-04-05T17:43:56.042Z,2.50
2023-04-05T17:47:08.373Z,2.23
2023-04-05T17:50:12.816Z,2.20
2023-04-05T17:53:16.794Z,2.70
2023-04-05T17:56:22.128Z,2.65
2023-04-05T17:59:25.108Z,2.70
2023-04-05T18:02:28.556Z,2.50
2023-04-05T18:05:31.511Z,2.65
2023-04-05T18:08:34.571Z,3.83
2023-04-05T18:11:38.920Z,2.33
2023-04-05T18:14:41.752Z,3.10
2023-04-05T18:17:45.717Z,2.50
2023-04-05T18:20:50.619Z,3.03
2023-04-05T18:23:54.116Z,3.03
2023-04-05T18:26:58.471Z,3.20
2023-04-05T18:30:01.671Z,3.05
2023-04-05T18:33:05.180Z,2.80
2023-04-05T18:36:08.956Z,3.10
2023-04-05T18:39:12.068Z,3.20
2023-04-05T18:42:17.692Z,3.20
2023-04-05T18:45:20.788Z,3.33
2023-04-05T18:48:25.189Z,3.70
2023-04-05T18:51:29.516Z,3.90
2023-04-05T18:54:32.484Z,3.03
2023-04-05T18:57:38.645Z,3.50
2023-04-05T19:00:41.796Z,3.83
2023-04-05T19:03:46.166Z,3.80
2023-04-05T19:06:49.291Z,3.22
2023-04-05T19:09:52.325Z,3.50
2023-04-05T19:12:56.738Z,3.63
2023-04-05T19:16:00.277Z,3.00
2023-04-05T19:19:07.345Z,3.22
2023-04-05T19:22:11.172Z,2.72
2023-04-05T19:25:14.273Z,2.85
2023-04-05T19:28:18.532Z,2.93
2023-04-05T19:31:23.231Z,2.80
2023-04-05T19:34:26.466Z,3.35
2023-04-05T19:37:30.881Z,3.33
2023-04-05T19:40:33.898Z,3.28
2023-04-05T19:43:41.032Z,2.83
2023-04-05T19:46:44.264Z,2.70
2023-04-05T19:49:49.753Z,3.17
2023-04-05T19:52:52.591Z,3.60
2023-04-05T19:55:56.054Z,3.30
2023-04-05T19:59:02.857Z,3.23
2023-04-05T20:02:32.773Z,3.97
2023-04-05T20:05:58.596Z,3.50
2023-04-05T20:09:07.473Z,3.80
2023-04-05T20:12:13.395Z,3.50
2023-04-05T20:15:35.775Z,3.00
2023-04-05T20:18:38.896Z,3.30
2023-04-05T20:21:43.470Z,3.40
2023-04-05T20:24:46.873Z,3.30
2023-04-05T20:27:49.778Z,2.90
2023-04-05T20:30:55.017Z,3.20
2023-04-05T20:33:59.366Z,2.90
2023-04-05T20:37:04.123Z,2.97
2023-04-05T20:40:08.429Z,3.00
2023-04-05T20:43:11.687Z,2.92
2023-04-05T20:46:17.259Z,2.63
2023-04-05T20:49:20.165Z,2.37
2023-04-05T20:52:23.293Z,3.00
2023-04-05T20:55:26.951Z,2.65
2023-04-05T20:58:29.966Z,2.70
2023-04-05T21:01:36.084Z,2.63
2023-04-05T21:04:39.020Z,2.57
2023-04-05T21:07:42.756Z,2.88
2023-04-05T21:10:45.795Z,2.90
2023-04-05T21:13:48.930Z,2.67
2023-04-05T21:16:53.147Z,2.90
2023-04-05T21:19:56.223Z,2.77
2023-04-05T21:23:00.752Z,3.42
2023-04-05T21:26:05.850Z,3.10
2023-04-05T21:29:08.850Z,2.67
2023-04-05T21:32:13.389Z,3.13
2023-04-05T21:35:16.248Z,2.70
2023-04-05T21:38:19.675Z,2.63
2023-04-05T21:41:22.599Z,3.22
2023-04-05T21:44:27.094Z,3.60
2023-04-05T21:47:31.670Z,4.40
2023-04-05T21:50:36.705Z,3.60
2023-04-05T21:53:40.653Z,4.45
2023-04-05T21:56:43.491Z,4.50
2023-04-05T21:59:46.917Z,3.70
2023-04-05T22:02:51.634Z,4.30
2023-04-05T22:05:55.864Z,4.20
2023-04-05T22:08:58.759Z,4.55
2023-04-05T22:12:03.103Z,4.10
2023-04-05T22:15:08.227Z,4.10
2023-04-05T22:18:12.662Z,4.15
2023-04-05T22:21:16.358Z,4.20
2023-04-05T22:24:19.654Z,4.73
2023-04-05T22:27:22.680Z,4.10
2023-04-05T22:30:28.029Z,3.95
2023-04-05T22:33:33.228Z,4.15
2023-04-05T22:36:36.262Z,4.43
2023-04-05T22:39:39.344Z,3.90
2023-04-05T22:42:43.162Z,4.22
2023-04-05T22:45:49.770Z,3.42
2023-04-05T22:48:55.136Z,4.13
2023-04-05T22:51:58.383Z,4.32
2023-04-05T22:55:02.719Z,4.10
2023-04-05T22:58:06.068Z,3.72
2023-04-05T23:01:09.365Z,3.90
2023-04-05T23:04:14.007Z,4.20
2023-04-05T23:07:17.166Z,3.80
2023-04-05T23:10:22.327Z,3.80
2023-04-05T23:13:25.526Z,3.70
2023-04-05T23:16:28.579Z,3.90
2023-04-05T23:19:33.049Z,3.78
2023-04-05T23:22:36.899Z,3.80
2023-04-05T23:25:39.730Z,4.10
2023-04-05T23:28:42.969Z,4.25
2023-04-05T23:31:46.042Z,3.83
2023-04-05T23:34:51.011Z,4.15
2023-04-05T23:37:54.747Z,4.18
2023-04-05T23:40:57.917Z,3.67
2023-04-05T23:44:01.114Z,4.00
2023-04-05T23:47:04.511Z,4.00
2023-04-05T23:50:11.176Z,4.13
2023-04-05T23:53:15.090Z,3.80
2023-04-05T23:56:17.911Z,3.47
2023-04-05T23:59:20.975Z,3.78
